sensor_id;sensor_type;location;lat;lon;timestamp;pressure;altitude;pressure_sealevel;temperature;humidity
15260;BME280;34462;51.368;12.364;2023-10-19T00:01:31;19480.53;;;-141.84;73.00
15260;BME280;34462;51.368;12.364;2023-10-19T00:04:03;19504.94;;;-141.84;72.86
15260;BME280;34462;51.368;12.364;2023-10-19T00:06:31;19486.66;;;-141.84;72.92
15260;BME280;34462;51.368;12.364;2023-10-19T00:08:59;19460.22;;;-141.84;72.66
15260;BME280;34462;51.368;12.364;2023-10-19T00:11:28;19464.28;;;-141.84;72.55
15260;BME280;34462;51.368;12.364;2023-10-19T00:13:55;19462.25;;;-141.84;72.82
15260;BME280;34462;51.368;12.364;2023-10-19T00:16:25;19470.38;;;-141.84;72.62
15260;BME280;34462;51.368;12.364;2023-10-19T00:18:56;19480.53;;;-141.84;72.48
15260;BME280;34462;51.368;12.364;2023-10-19T00:21:28;19484.59;;;-141.84;72.49
15260;BME280;34462;51.368;12.364;2023-10-19T00:23:57;19484.59;;;-141.84;72.00
15260;BME280;34462;51.368;12.364;2023-10-19T00:26:28;19458.19;;;-141.84;72.56
15260;BME280;34462;51.368;12.364;2023-10-19T00:28:57;19468.34;;;-141.84;73.14
15260;BME280;34462;51.368;12.364;2023-10-19T00:31:27;19474.44;;;-141.84;72.70
15260;BME280;34462;51.368;12.364;2023-10-19T00:33:55;19456.16;;;-141.84;72.69
15260;BME280;34462;51.368;12.364;2023-10-19T00:36:24;19476.47;;;-141.84;72.43
15260;BME280;34462;51.368;12.364;2023-10-19T00:38:54;19460.22;;;-141.84;72.05
15260;BME280;34462;51.368;12.364;2023-10-19T00:41:25;19484.59;;;-141.84;71.82
15260;BME280;34462;51.368;12.364;2023-10-19T00:43:57;19506.97;;;-141.84;71.36
15260;BME280;34462;51.368;12.364;2023-10-19T00:46:30;19506.97;;;-141.84;71.20
15260;BME280;34462;51.368;12.364;2023-10-19T00:49:05;19476.47;;;-141.84;71.88
15260;BME280;34462;51.368;12.364;2023-10-19T00:51:37;19504.94;;;-141.84;71.96
15260;BME280;34462;51.368;12.364;2023-10-19T00:54:17;19484.59;;;-141.84;72.06
15260;BME280;34462;51.368;12.364;2023-10-19T00:56:53;19488.69;;;-141.84;72.27
15260;BME280;34462;51.368;12.364;2023-10-19T00:59:26;19476.47;;;-141.84;72.18
15260;BME280;34462;51.368;12.364;2023-10-19T01:01:57;19484.59;;;-141.84;72.20
15260;BME280;34462;51.368;12.364;2023-10-19T01:04:43;19480.53;;;-141.84;72.60
15260;BME280;34462;51.368;12.364;2023-10-19T01:07:18;19506.97;;;-141.84;72.32
15260;BME280;34462;51.368;12.364;2023-10-19T01:09:52;19472.41;;;-141.84;72.63
15260;BME280;34462;51.368;12.364;2023-10-19T01:12:23;19496.81;;;-141.84;72.80
15260;BME280;34462;51.368;12.364;2023-10-19T01:15:08;19533.38;;;-141.84;71.65
15260;BME280;34462;51.368;12.364;2023-10-19T01:17:45;19496.81;;;-141.84;72.17
15260;BME280;34462;51.368;12.364;2023-10-19T01:20:21;19500.88;;;-141.84;72.20
15260;BME280;34462;51.368;12.364;2023-10-19T01:22:53;19484.59;;;-141.84;72.69
15260;BME280;34462;51.368;12.364;2023-10-19T01:25:33;19470.38;;;-141.84;72.63
15260;BME280;34462;51.368;12.364;2023-10-19T01:28:08;19466.31;;;-141.84;73.13
15260;BME280;34462;51.368;12.364;2023-10-19T01:30:37;19488.69;;;-141.84;73.56
15260;BME280;34462;51.368;12.364;2023-10-19T01:33:06;19496.81;;;-141.84;73.46
15260;BME280;34462;51.368;12.364;2023-10-19T01:35:40;19502.91;;;-141.84;72.64
15260;BME280;34462;51.368;12.364;2023-10-19T01:38:27;19486.66;;;-141.84;73.39
15260;BME280;34462;51.368;12.364;2023-10-19T01:40:58;19509.00;;;-141.84;73.29
15260;BME280;34462;51.368;12.364;2023-10-19T01:43:26;19509.00;;;-141.84;72.90
15260;BME280;34462;51.368;12.364;2023-10-19T01:45:58;19490.72;;;-141.84;73.00
15260;BME280;34462;51.368;12.364;2023-10-19T01:48:30;19486.66;;;-141.84;73.33
15260;BME280;34462;51.368;12.364;2023-10-19T01:51:04;19517.13;;;-141.84;73.01
15260;BME280;34462;51.368;12.364;2023-10-19T01:53:33;19476.47;;;-141.84;73.29
15260;BME280;34462;51.368;12.364;2023-10-19T01:56:03;19494.78;;;-141.84;73.43
15260;BME280;34462;51.368;12.364;2023-10-19T01:58:32;19456.16;;;-141.84;73.41
15260;BME280;34462;51.368;12.364;2023-10-19T02:01:04;19502.91;;;-141.84;74.01
15260;BME280;34462;51.368;12.364;2023-10-19T02:03:36;19480.53;;;-141.84;74.68
15260;BME280;34462;51.368;12.364;2023-10-19T02:06:10;19498.84;;;-141.84;74.31
15260;BME280;34462;51.368;12.364;2023-10-19T02:08:48;19486.66;;;-141.84;73.74
15260;BME280;34462;51.368;12.364;2023-10-19T02:11:20;19478.50;;;-141.84;74.34
15260;BME280;34462;51.368;12.364;2023-10-19T02:13:50;19527.28;;;-141.84;75.08
15260;BME280;34462;51.368;12.364;2023-10-19T02:16:20;19480.53;;;-141.84;75.41
15260;BME280;34462;51.368;12.364;2023-10-19T02:18:50;19480.53;;;-141.84;76.03
15260;BME280;34462;51.368;12.364;2023-10-19T02:21:18;19464.28;;;-141.84;76.77
15260;BME280;34462;51.368;12.364;2023-10-19T02:23:50;19446.00;;;-141.84;77.44
15260;BME280;34462;51.368;12.364;2023-10-19T02:26:18;19466.31;;;-141.84;77.75
15260;BME280;34462;51.368;12.364;2023-10-19T02:28:47;19458.19;;;-141.84;77.64
15260;BME280;34462;51.368;12.364;2023-10-19T02:31:17;19443.97;;;-141.84;78.41
15260;BME280;34462;51.368;12.364;2023-10-19T02:33:49;19405.34;;;-141.84;79.10
15260;BME280;34462;51.368;12.364;2023-10-19T02:36:19;19427.72;;;-141.84;80.24
15260;BME280;34462;51.368;12.364;2023-10-19T02:38:47;19417.56;;;-141.84;80.36
15260;BME280;34462;51.368;12.364;2023-10-19T02:41:20;19425.69;;;-141.84;81.22
15260;BME280;34462;51.368;12.364;2023-10-19T02:43:48;19427.72;;;-141.84;81.77
15260;BME280;34462;51.368;12.364;2023-10-19T02:46:28;19395.19;;;-141.84;82.33
15260;BME280;34462;51.368;12.364;2023-10-19T02:48:55;19409.41;;;-141.84;82.77
15260;BME280;34462;51.368;12.364;2023-10-19T02:51:24;19431.78;;;-141.84;83.02
15260;BME280;34462;51.368;12.364;2023-10-19T02:53:52;19391.13;;;-141.84;83.20
15260;BME280;34462;51.368;12.364;2023-10-19T02:56:22;19413.47;;;-141.84;83.91
15260;BME280;34462;51.368;12.364;2023-10-19T02:58:50;19395.19;;;-141.84;83.62
15260;BME280;34462;51.368;12.364;2023-10-19T03:01:21;19395.19;;;-141.84;84.14
15260;BME280;34462;51.368;12.364;2023-10-19T03:03:51;19411.44;;;-141.84;84.52
15260;BME280;34462;51.368;12.364;2023-10-19T03:06:21;19395.19;;;-141.84;84.76
15260;BME280;34462;51.368;12.364;2023-10-19T03:08:49;19448.03;;;-141.84;84.54
15260;BME280;34462;51.368;12.364;2023-10-19T03:11:26;19443.97;;;-141.84;84.55
15260;BME280;34462;51.368;12.364;2023-10-19T03:13:54;19431.78;;;-141.84;84.97
15260;BME280;34462;51.368;12.364;2023-10-19T03:16:24;19468.34;;;-141.84;85.36
15260;BME280;34462;51.368;12.364;2023-10-19T03:18:54;19387.06;;;-141.84;86.14
15260;BME280;34462;51.368;12.364;2023-10-19T03:21:22;19482.56;;;-141.84;86.43
15260;BME280;34462;51.368;12.364;2023-10-19T03:23:53;19504.94;;;-141.84;86.80
15260;BME280;34462;51.368;12.364;2023-10-19T03:26:24;19521.19;;;-141.84;86.76
15260;BME280;34462;51.368;12.364;2023-10-19T03:28:57;19561.84;;;-141.84;87.49
15260;BME280;34462;51.368;12.364;2023-10-19T03:31:30;19651.25;;;-141.84;88.13
15260;BME280;34462;51.368;12.364;2023-10-19T03:34:00;19693.94;;;-141.84;88.31
15260;BME280;34462;51.368;12.364;2023-10-19T03:36:32;19787.41;;;-141.84;88.65
15260;BME280;34462;51.368;12.364;2023-10-19T03:39:00;19817.91;;;-141.84;88.72
15260;BME280;34462;51.368;12.364;2023-10-19T03:41:41;19872.78;;;-141.84;88.95
15260;BME280;34462;51.368;12.364;2023-10-19T03:44:11;19964.25;;;-141.84;89.13
15260;BME280;34462;51.368;12.364;2023-10-19T03:46:46;19984.56;;;-141.84;89.29
15260;BME280;34462;51.368;12.364;2023-10-19T03:49:25;20047.56;;;-141.84;89.30
15260;BME280;34462;51.368;12.364;2023-10-19T03:52:00;20094.31;;;-141.84;89.46
15260;BME280;34462;51.368;12.364;2023-10-19T03:54:47;20317.91;;;-141.84;89.85
15260;BME280;34462;51.368;12.364;2023-10-19T03:57:18;20494.75;;;-141.84;90.07
15260;BME280;34462;51.368;12.364;2023-10-19T03:59:53;20478.47;;;-141.84;90.15
15260;BME280;34462;51.368;12.364;2023-10-19T04:02:24;20492.72;;;-141.84;90.21
15260;BME280;34462;51.368;12.364;2023-10-19T04:04:54;20571.97;;;-141.84;90.32
15260;BME280;34462;51.368;12.364;2023-10-19T04:07:24;20500.84;;;-141.84;90.04
15260;BME280;34462;51.368;12.364;2023-10-19T04:09:55;20624.84;;;-141.84;90.29
15260;BME280;34462;51.368;12.364;2023-10-19T04:12:39;21147.28;;;-141.84;90.59
15260;BME280;34462;51.368;12.364;2023-10-19T04:15:10;21444.13;;;-141.84;90.89
15260;BME280;34462;51.368;12.364;2023-10-19T04:17:41;22131.41;;;-141.84;91.18
15260;BME280;34462;51.368;12.364;2023-10-19T04:20:11;22052.09;;;-141.84;91.00
15260;BME280;34462;51.368;12.364;2023-10-19T04:22:55;21743.03;;;-141.84;90.97
15260;BME280;34462;51.368;12.364;2023-10-19T04:25:25;22058.22;;;-141.84;90.96
15260;BME280;34462;51.368;12.364;2023-10-19T04:27:55;22709.00;;;-141.84;91.22
15260;BME280;34462;51.368;12.364;2023-10-19T04:30:24;22568.66;;;-141.84;91.11
15260;BME280;34462;51.368;12.364;2023-10-19T04:32:53;22798.47;;;-141.84;91.22
15260;BME280;34462;51.368;12.364;2023-10-19T04:35:24;23453.47;;;-141.84;91.49
15260;BME280;34462;51.368;12.364;2023-10-19T04:37:57;24094.31;;;-141.84;91.50
15260;BME280;34462;51.368;12.364;2023-10-19T04:40:27;24309.97;;;-141.84;91.43
15260;BME280;34462;51.368;12.364;2023-10-19T04:42:57;23243.94;;;-141.84;91.26
15260;BME280;34462;51.368;12.364;2023-10-19T04:45:26;23593.81;;;-141.84;91.37
15260;BME280;34462;51.368;12.364;2023-10-19T04:47:56;24934.69;;;-141.84;91.55
15260;BME280;34462;51.368;12.364;2023-10-19T04:50:25;26766.63;;;-141.84;91.81
15260;BME280;34462;51.368;12.364;2023-10-19T04:52:53;26866.41;;;-141.84;91.76
15260;BME280;34462;51.368;12.364;2023-10-19T04:55:21;27809.19;;;-141.84;91.96
15260;BME280;34462;51.368;12.364;2023-10-19T04:57:49;29196.31;;;-141.84;92.09
15260;BME280;34462;51.368;12.364;2023-10-19T05:00:19;31026.19;;;-141.84;92.24
15260;BME280;34462;51.368;12.364;2023-10-19T05:02:48;34302.97;;;-141.84;92.41
15260;BME280;34462;51.368;12.364;2023-10-19T05:05:19;39393.78;;;-141.84;92.71
15260;BME280;34462;51.368;12.364;2023-10-19T05:07:47;40893.31;;;-141.84;92.68
15260;BME280;34462;51.368;12.364;2023-10-19T05:10:16;43697.78;;;-141.84;92.85
15260;BME280;34462;51.368;12.364;2023-10-19T05:12:47;46275.03;;;-141.84;92.93
15260;BME280;34462;51.368;12.364;2023-10-19T05:15:15;50729.94;;;-141.84;93.13
15260;BME280;34462;51.368;12.364;2023-10-19T05:17:46;53877.56;;;-141.84;93.15
15260;BME280;34462;51.368;12.364;2023-10-19T05:20:15;56239.94;;;-141.84;93.42
15260;BME280;34462;51.368;12.364;2023-10-19T05:22:43;57553.00;;;-141.84;93.44
15260;BME280;34462;51.368;12.364;2023-10-19T05:25:11;59129.22;;;-141.84;93.36
15260;BME280;34462;51.368;12.364;2023-10-19T05:27:39;59129.22;;;-141.84;93.45
15260;BME280;34462;51.368;12.364;2023-10-19T05:30:10;59654.75;;;-141.84;93.44
15260;BME280;34462;51.368;12.364;2023-10-19T05:32:38;57290.34;;;-141.84;93.46
15260;BME280;34462;51.368;12.364;2023-10-19T05:35:08;58341.03;;;-141.84;93.34
15260;BME280;34462;51.368;12.364;2023-10-19T05:37:40;58078.34;;;-141.84;93.33
15260;BME280;34462;51.368;12.364;2023-10-19T05:40:10;56502.53;;;-141.84;93.08
15260;BME280;34462;51.368;12.364;2023-10-19T05:42:41;53090.44;;;-141.84;93.05
15260;BME280;34462;51.368;12.364;2023-10-19T05:45:10;47584.78;;;-141.84;92.69
15260;BME280;34462;51.368;12.364;2023-10-19T05:47:40;43605.75;;;-141.84;92.60
15260;BME280;34462;51.368;12.364;2023-10-19T05:50:10;48894.97;;;-141.84;92.90
15260;BME280;34462;51.368;12.364;2023-10-19T05:52:41;51778.88;;;-141.84;92.98
15260;BME280;34462;51.368;12.364;2023-10-19T05:55:10;54402.44;;;-141.84;93.09
15260;BME280;34462;51.368;12.364;2023-10-19T05:57:39;60443.22;;;-141.84;93.35
15260;BME280;34462;51.368;12.364;2023-10-19T06:00:10;59654.75;;;-141.84;93.40
15260;BME280;34462;51.368;12.364;2023-10-19T06:02:43;59129.22;;;-141.84;93.41
15260;BME280;34462;51.368;12.364;2023-10-19T06:05:15;55714.84;;;-141.84;93.04
15260;BME280;34462;51.368;12.364;2023-10-19T06:07:44;54140.00;;;-141.84;92.89
15260;BME280;34462;51.368;12.364;2023-10-19T06:10:17;54402.44;;;-141.84;93.10
15260;BME280;34462;51.368;12.364;2023-10-19T06:12:47;62283.53;;;-141.84;93.38
15260;BME280;34462;51.368;12.364;2023-10-19T06:15:18;66229.97;;;-141.84;93.63
15260;BME280;34462;51.368;12.364;2023-10-19T06:17:48;69916.81;;;-141.84;93.94
15260;BME280;34462;51.368;12.364;2023-10-19T06:20:18;73079.69;;;-141.84;94.23
15260;BME280;34462;51.368;12.364;2023-10-19T06:22:52;74662.09;;;-141.84;94.22
15260;BME280;34462;51.368;12.364;2023-10-19T06:25:24;78356.72;;;-141.84;94.42
15260;BME280;34462;51.368;12.364;2023-10-19T06:27:53;78620.75;;;-141.84;94.25
15260;BME280;34462;51.368;12.364;2023-10-19T06:30:25;75189.69;;;-141.84;94.06
15260;BME280;34462;51.368;12.364;2023-10-19T06:32:55;73607.09;;;-141.84;93.94
15260;BME280;34462;51.368;12.364;2023-10-19T06:35:25;75453.50;;;-141.84;94.08
15260;BME280;34462;51.368;12.364;2023-10-19T06:37:54;80469.50;;;-141.84;94.54
15260;BME280;34462;51.368;12.364;2023-10-19T06:40:23;82847.66;;;-141.84;94.67
15260;BME280;34462;51.368;12.364;2023-10-19T06:42:54;87079.03;;;-141.84;95.00
15260;BME280;34462;51.368;12.364;2023-10-19T06:45:24;86814.44;;;-141.84;95.06
15260;BME280;34462;51.368;12.364;2023-10-19T06:47:52;88402.22;;;-141.84;95.08
15260;BME280;34462;51.368;12.364;2023-10-19T06:50:23;86814.44;;;-141.84;94.81
15260;BME280;34462;51.368;12.364;2023-10-19T06:52:53;86020.75;;;-141.84;94.79
15260;BME280;34462;51.368;12.364;2023-10-19T06:55:22;88137.56;;;-141.84;95.09
15260;BME280;34462;51.368;12.364;2023-10-19T06:57:53;88931.63;;;-141.84;95.25
15260;BME280;34462;51.368;12.364;2023-10-19T07:00:24;90520.28;;;-141.84;95.24
15260;BME280;34462;51.368;12.364;2023-10-19T07:02:56;93434.41;;;-141.84;95.44
15260;BME280;34462;51.368;12.364;2023-10-19T07:05:27;91049.97;;;-141.84;95.10
15260;BME280;34462;51.368;12.364;2023-10-19T07:07:59;87872.91;;;-141.84;94.89
15260;BME280;34462;51.368;12.364;2023-10-19T07:10:29;86020.75;;;-141.84;94.82
15260;BME280;34462;51.368;12.364;2023-10-19T07:12:57;86020.75;;;-141.84;95.01
15260;BME280;34462;51.368;12.364;2023-10-19T07:15:26;83640.72;;;-141.84;94.75
15260;BME280;34462;51.368;12.364;2023-10-19T07:17:56;81526.28;;;-141.84;94.46
15260;BME280;34462;51.368;12.364;2023-10-19T07:20:25;80997.84;;;-141.84;94.21
15260;BME280;34462;51.368;12.364;2023-10-19T07:22:54;81262.06;;;-141.84;94.45
15260;BME280;34462;51.368;12.364;2023-10-19T07:25:24;84169.50;;;-141.84;94.60
15260;BME280;34462;51.368;12.364;2023-10-19T07:27:53;82583.34;;;-141.84;94.53
15260;BME280;34462;51.368;12.364;2023-10-19T07:30:22;86285.31;;;-141.84;94.88
15260;BME280;34462;51.368;12.364;2023-10-19T07:32:53;85227.25;;;-141.84;94.75
15260;BME280;34462;51.368;12.364;2023-10-19T07:35:26;86814.44;;;-141.84;94.97
15260;BME280;34462;51.368;12.364;2023-10-19T07:37:55;90520.28;;;-141.84;95.26
15260;BME280;34462;51.368;12.364;2023-10-19T07:40:25;91579.72;;;-141.84;95.29
15260;BME280;34462;51.368;12.364;2023-10-19T07:42:54;93169.38;;;-141.84;95.35
15260;BME280;34462;51.368;12.364;2023-10-19T07:45:23;92639.44;;;-141.84;95.23
15260;BME280;34462;51.368;12.364;2023-10-19T07:47:52;88137.56;;;-141.84;94.67
15260;BME280;34462;51.368;12.364;2023-10-19T07:50:21;84962.78;;;-141.84;94.56
15260;BME280;34462;51.368;12.364;2023-10-19T07:52:51;86020.75;;;-141.84;94.67
15260;BME280;34462;51.368;12.364;2023-10-19T07:55:21;86285.31;;;-141.84;94.73
15260;BME280;34462;51.368;12.364;2023-10-19T07:57:53;87343.63;;;-141.84;94.99
15260;BME280;34462;51.368;12.364;2023-10-19T08:00:23;88931.63;;;-141.84;94.88
15260;BME280;34462;51.368;12.364;2023-10-19T08:02:52;87608.25;;;-141.84;94.74
15260;BME280;34462;51.368;12.364;2023-10-19T08:05:22;88137.56;;;-141.84;94.83
15260;BME280;34462;51.368;12.364;2023-10-19T08:07:50;89990.66;;;-141.84;94.97
15260;BME280;34462;51.368;12.364;2023-10-19T08:10:20;85756.25;;;-141.84;94.50
15260;BME280;34462;51.368;12.364;2023-10-19T08:12:49;85756.25;;;-141.84;94.74
15260;BME280;34462;51.368;12.364;2023-10-19T08:15:20;80733.66;;;-141.84;94.16
15260;BME280;34462;51.368;12.364;2023-10-19T08:17:51;79412.97;;;-141.84;94.16
15260;BME280;34462;51.368;12.364;2023-10-19T08:20:21;75453.50;;;-141.84;93.77
15260;BME280;34462;51.368;12.364;2023-10-19T08:22:59;76508.97;;;-141.84;93.99
15260;BME280;34462;51.368;12.364;2023-10-19T08:25:29;62546.50;;;-141.84;92.67
15260;BME280;34462;51.368;12.364;2023-10-19T08:28:00;46013.16;;;-141.84;92.14
15260;BME280;34462;51.368;12.364;2023-10-19T08:30:30;49157.03;;;-141.84;92.31
15260;BME280;34462;51.368;12.364;2023-10-19T08:32:58;54664.88;;;-141.84;92.65
15260;BME280;34462;51.368;12.364;2023-10-19T08:35:26;60180.38;;;-141.84;92.92
15260;BME280;34462;51.368;12.364;2023-10-19T08:37:56;60180.38;;;-141.84;92.83
15260;BME280;34462;51.368;12.364;2023-10-19T08:40:26;58866.47;;;-141.84;92.86
15260;BME280;34462;51.368;12.364;2023-10-19T08:42:55;61757.66;;;-141.84;92.94
15260;BME280;34462;51.368;12.364;2023-10-19T08:45:25;62546.50;;;-141.84;92.99
15260;BME280;34462;51.368;12.364;2023-10-19T08:47:57;59654.75;;;-141.84;92.74
15260;BME280;34462;51.368;12.364;2023-10-19T08:50:29;58866.47;;;-141.84;92.70
15260;BME280;34462;51.368;12.364;2023-10-19T08:52:59;51254.38;;;-141.84;92.33
15260;BME280;34462;51.368;12.364;2023-10-19T08:55:29;39898.34;;;-141.84;91.67
15260;BME280;34462;51.368;12.364;2023-10-19T08:58:11;35980.13;;;-141.84;91.46
15260;BME280;34462;51.368;12.364;2023-10-19T09:00:45;31523.56;;;-141.84;91.31
15260;BME280;34462;51.368;12.364;2023-10-19T09:03:17;29320.59;;;-141.84;91.10
15260;BME280;34462;51.368;12.364;2023-10-19T09:05:46;25170.75;;;-141.84;90.32
15260;BME280;34462;51.368;12.364;2023-10-19T09:08:17;23547.03;;;-141.84;90.12
15260;BME280;34462;51.368;12.364;2023-10-19T09:10:48;21598.66;;;-141.84;89.22
15260;BME280;34462;51.368;12.364;2023-10-19T09:13:19;20659.38;;;-141.84;88.32
15260;BME280;34462;51.368;12.364;2023-10-19T09:15:50;20340.25;;;-141.84;87.83
15260;BME280;34462;51.368;12.364;2023-10-19T09:18:24;20214.22;;;-141.84;87.46
15260;BME280;34462;51.368;12.364;2023-10-19T09:20:55;20078.06;;;-141.84;86.96
15260;BME280;34462;51.368;12.364;2023-10-19T09:23:30;19891.06;;;-141.84;85.79
15260;BME280;34462;51.368;12.364;2023-10-19T09:26:00;19819.94;;;-141.84;85.04
15260;BME280;34462;51.368;12.364;2023-10-19T09:28:31;19793.50;;;-141.84;84.74
15260;BME280;34462;51.368;12.364;2023-10-19T09:31:02;19793.50;;;-141.84;84.83
15260;BME280;34462;51.368;12.364;2023-10-19T09:33:33;19824.00;;;-141.84;84.62
15260;BME280;34462;51.368;12.364;2023-10-19T09:36:03;19754.91;;;-141.84;82.62
15260;BME280;34462;51.368;12.364;2023-10-19T09:38:43;19736.59;;;-141.84;82.92
15260;BME280;34462;51.368;12.364;2023-10-19T09:41:12;19746.78;;;-141.84;83.17
15260;BME280;34462;51.368;12.364;2023-10-19T09:43:44;19805.72;;;-141.84;83.46
15260;BME280;34462;51.368;12.364;2023-10-19T09:46:22;19838.22;;;-141.84;82.71
15260;BME280;34462;51.368;12.364;2023-10-19T09:48:52;19828.06;;;-141.84;81.82
15260;BME280;34462;51.368;12.364;2023-10-19T09:51:22;19862.63;;;-141.84;81.29
15260;BME280;34462;51.368;12.364;2023-10-19T09:53:59;19819.94;;;-141.84;80.02
15260;BME280;34462;51.368;12.364;2023-10-19T09:56:35;19838.22;;;-141.84;78.25
15260;BME280;34462;51.368;12.364;2023-10-19T09:59:06;19836.19;;;-141.84;78.18
15260;BME280;34462;51.368;12.364;2023-10-19T10:02:05;19813.84;;;-141.84;77.92
15260;BME280;34462;51.368;12.364;2023-10-19T10:04:36;19832.13;;;-141.84;77.99
15260;BME280;34462;51.368;12.364;2023-10-19T10:07:06;19842.28;;;-141.84;77.18
15260;BME280;34462;51.368;12.364;2023-10-19T10:09:37;19838.22;;;-141.84;77.69
15260;BME280;34462;51.368;12.364;2023-10-19T10:12:19;19864.66;;;-141.84;78.34
15260;BME280;34462;51.368;12.364;2023-10-19T10:15:02;19884.97;;;-141.84;78.28
15260;BME280;34462;51.368;12.364;2023-10-19T10:17:35;19895.13;;;-141.84;77.82
15260;BME280;34462;51.368;12.364;2023-10-19T10:20:33;19889.03;;;-141.84;77.25
15260;BME280;34462;51.368;12.364;2023-10-19T10:23:19;19968.31;;;-141.84;75.67
15260;BME280;34462;51.368;12.364;2023-10-19T10:25:51;19937.81;;;-141.84;76.54
15260;BME280;34462;51.368;12.364;2023-10-19T10:28:21;19891.06;;;-141.84;77.07
15260;BME280;34462;51.368;12.364;2023-10-19T10:31:11;19899.19;;;-141.84;77.69
15260;BME280;34462;51.368;12.364;2023-10-19T10:33:47;20013.00;;;-141.84;77.49
15260;BME280;34462;51.368;12.364;2023-10-19T10:36:17;19907.31;;;-141.84;77.34
15260;BME280;34462;51.368;12.364;2023-10-19T10:38:48;19923.59;;;-141.84;77.88
15260;BME280;34462;51.368;12.364;2023-10-19T10:41:21;19905.28;;;-141.84;77.18
15260;BME280;34462;51.368;12.364;2023-10-19T10:43:54;19931.72;;;-141.84;77.09
15260;BME280;34462;51.368;12.364;2023-10-19T10:46:24;19923.59;;;-141.84;77.82
15260;BME280;34462;51.368;12.364;2023-10-19T10:48:53;19895.13;;;-141.84;78.27
15260;BME280;34462;51.368;12.364;2023-10-19T10:51:25;19887.00;;;-141.84;78.41
15260;BME280;34462;51.368;12.364;2023-10-19T10:53:55;19891.06;;;-141.84;78.43
15260;BME280;34462;51.368;12.364;2023-10-19T10:56:24;19921.56;;;-141.84;78.77
15260;BME280;34462;51.368;12.364;2023-10-19T10:58:52;19925.63;;;-141.84;79.26
15260;BME280;34462;51.368;12.364;2023-10-19T11:01:29;19923.59;;;-141.84;78.72
15260;BME280;34462;51.368;12.364;2023-10-19T11:04:07;19923.59;;;-141.84;78.76
15260;BME280;34462;51.368;12.364;2023-10-19T11:06:48;19976.44;;;-141.84;78.74
15260;BME280;34462;51.368;12.364;2023-10-19T11:09:17;19988.63;;;-141.84;78.16
15260;BME280;34462;51.368;12.364;2023-10-19T11:11:46;20015.03;;;-141.84;77.83
15260;BME280;34462;51.368;12.364;2023-10-19T11:14:16;19996.75;;;-141.84;77.57
15260;BME280;34462;51.368;12.364;2023-10-19T11:16:44;20037.41;;;-141.84;76.51
15260;BME280;34462;51.368;12.364;2023-10-19T11:19:13;20039.44;;;-141.84;76.07
15260;BME280;34462;51.368;12.364;2023-10-19T11:21:53;20090.25;;;-141.84;75.51
15260;BME280;34462;51.368;12.364;2023-10-19T11:24:26;20065.84;;;-141.84;75.27
15260;BME280;34462;51.368;12.364;2023-10-19T11:26:59;20094.31;;;-141.84;74.99
15260;BME280;34462;51.368;12.364;2023-10-19T11:29:27;20084.16;;;-141.84;74.98
15260;BME280;34462;51.368;12.364;2023-10-19T11:31:59;20055.69;;;-141.84;74.80
15260;BME280;34462;51.368;12.364;2023-10-19T11:34:28;20076.03;;;-141.84;75.15
15260;BME280;34462;51.368;12.364;2023-10-19T11:36:59;20059.75;;;-141.84;74.71
15260;BME280;34462;51.368;12.364;2023-10-19T11:39:27;20092.28;;;-141.84;74.98
15260;BME280;34462;51.368;12.364;2023-10-19T11:41:56;20078.06;;;-141.84;75.18
15260;BME280;34462;51.368;12.364;2023-10-19T11:44:25;20041.47;;;-141.84;75.91
15260;BME280;34462;51.368;12.364;2023-10-19T11:46:53;20061.78;;;-141.84;76.17
15260;BME280;34462;51.368;12.364;2023-10-19T11:49:21;20065.84;;;-141.84;76.08
15260;BME280;34462;51.368;12.364;2023-10-19T11:51:53;20059.75;;;-141.84;75.96
15260;BME280;34462;51.368;12.364;2023-10-19T11:54:22;20094.31;;;-141.84;75.77
15260;BME280;34462;51.368;12.364;2023-10-19T11:56:52;20090.25;;;-141.84;75.51
15260;BME280;34462;51.368;12.364;2023-10-19T11:59:21;20057.72;;;-141.84;75.81
15260;BME280;34462;51.368;12.364;2023-10-19T12:01:50;20021.16;;;-141.84;76.17
15260;BME280;34462;51.368;12.364;2023-10-19T12:04:18;20027.25;;;-141.84;76.84
15260;BME280;34462;51.368;12.364;2023-10-19T12:06:47;20000.81;;;-141.84;77.16
15260;BME280;34462;51.368;12.364;2023-10-19T12:09:15;20049.59;;;-141.84;77.53
15260;BME280;34462;51.368;12.364;2023-10-19T12:11:45;20002.84;;;-141.84;77.76
15260;BME280;34462;51.368;12.364;2023-10-19T12:14:15;19996.75;;;-141.84;78.36
15260;BME280;34462;51.368;12.364;2023-10-19T12:16:43;19996.75;;;-141.84;79.10
15260;BME280;34462;51.368;12.364;2023-10-19T12:19:13;19960.16;;;-141.84;79.14
15260;BME280;34462;51.368;12.364;2023-10-19T12:21:43;19958.13;;;-141.84;80.01
15260;BME280;34462;51.368;12.364;2023-10-19T12:24:11;19990.66;;;-141.84;80.81
15260;BME280;34462;51.368;12.364;2023-10-19T12:26:39;20027.25;;;-141.84;81.40
15260;BME280;34462;51.368;12.364;2023-10-19T12:29:10;20021.16;;;-141.84;81.60
15260;BME280;34462;51.368;12.364;2023-10-19T12:31:38;20010.97;;;-141.84;82.28
15260;BME280;34462;51.368;12.364;2023-10-19T12:34:07;20029.28;;;-141.84;82.63
15260;BME280;34462;51.368;12.364;2023-10-19T12:36:38;20008.94;;;-141.84;82.96
15260;BME280;34462;51.368;12.364;2023-10-19T12:39:08;20006.91;;;-141.84;82.76
15260;BME280;34462;51.368;12.364;2023-10-19T12:41:42;19998.78;;;-141.84;82.82
15260;BME280;34462;51.368;12.364;2023-10-19T12:44:12;19998.78;;;-141.84;83.29
15260;BME280;34462;51.368;12.364;2023-10-19T12:46:42;19986.59;;;-141.84;83.57
15260;BME280;34462;51.368;12.364;2023-10-19T12:49:10;20010.97;;;-141.84;84.39
15260;BME280;34462;51.368;12.364;2023-10-19T12:51:43;20053.66;;;-141.84;84.74